Arnott, Wisconsin
Current Conditions -  °F | °C
As of 8:35 PM on Friday 28 Nov 2014 (Local Time) from KSTE Reporting Station
Overcast Overcast  
Wind Chill: 12°   Ceiling: 8000
Heat Index: 19°   Visibility: 10mi
Dew Point: 16°   Wind: 5mph
Humidity: 89%   Direction: 80°E
Pressure: 29.87"   Gusts: NA
Location:  44.5531°N, 89.5186°W
Report Text: KSTE 290235Z AUTO 08004KT 10SM SCT014 BKN080 OVC110 M07/M09 A2987 RMK AO2 T10721087
Loading
Personal Weather Stations






























Interactive Weather Map New forecast layout! Learn more

10-Day Weather Forecast

Advertisements
Track Severe Weather on mobile